sensor_id;sensor_type;location;lat;lon;timestamp;P1;durP1;ratioP1;P2;durP2;ratioP2
4186;SDS011;2107;52.306;10.484;2023-06-26T00:00:07;0.10;;;0.10;;
4186;SDS011;2107;52.306;10.484;2023-06-26T00:02:36;0.10;;;0.10;;
4186;SDS011;2107;52.306;10.484;2023-06-26T00:05:03;0.10;;;0.10;;
4186;SDS011;2107;52.306;10.484;2023-06-26T00:07:30;0.10;;;0.10;;
4186;SDS011;2107;52.306;10.484;2023-06-26T00:09:59;0.10;;;0.10;;
4186;SDS011;2107;52.306;10.484;2023-06-26T00:12:27;0.10;;;0.10;;
4186;SDS011;2107;52.306;10.484;2023-06-26T00:14:54;0.00;;;0.00;;
4186;SDS011;2107;52.306;10.484;2023-06-26T00:17:21;0.10;;;0.10;;
4186;SDS011;2107;52.306;10.484;2023-06-26T00:19:48;0.00;;;0.00;;
4186;SDS011;2107;52.306;10.484;2023-06-26T00:22:15;0.10;;;0.10;;
4186;SDS011;2107;52.306;10.484;2023-06-26T00:24:42;0.10;;;0.10;;
4186;SDS011;2107;52.306;10.484;2023-06-26T00:27:10;0.10;;;0.10;;
4186;SDS011;2107;52.306;10.484;2023-06-26T00:29:38;0.00;;;0.00;;
4186;SDS011;2107;52.306;10.484;2023-06-26T00:32:06;0.00;;;0.00;;
4186;SDS011;2107;52.306;10.484;2023-06-26T00:34:33;0.00;;;0.00;;
4186;SDS011;2107;52.306;10.484;2023-06-26T00:36:59;0.10;;;0.10;;
4186;SDS011;2107;52.306;10.484;2023-06-26T00:39:26;0.00;;;0.00;;
4186;SDS011;2107;52.306;10.484;2023-06-26T00:41:53;0.00;;;0.00;;
4186;SDS011;2107;52.306;10.484;2023-06-26T00:44:20;0.00;;;0.00;;
4186;SDS011;2107;52.306;10.484;2023-06-26T00:46:48;0.00;;;0.00;;
4186;SDS011;2107;52.306;10.484;2023-06-26T00:49:15;0.10;;;0.10;;
4186;SDS011;2107;52.306;10.484;2023-06-26T00:51:42;0.00;;;0.00;;
4186;SDS011;2107;52.306;10.484;2023-06-26T00:54:10;0.10;;;0.10;;
4186;SDS011;2107;52.306;10.484;2023-06-26T00:56:37;0.10;;;0.10;;
4186;SDS011;2107;52.306;10.484;2023-06-26T00:59:04;0.10;;;0.10;;
4186;SDS011;2107;52.306;10.484;2023-06-26T01:01:31;0.10;;;0.10;;
4186;SDS011;2107;52.306;10.484;2023-06-26T01:03:59;0.10;;;0.10;;
4186;SDS011;2107;52.306;10.484;2023-06-26T01:06:27;0.10;;;0.10;;
4186;SDS011;2107;52.306;10.484;2023-06-26T01:08:57;0.10;;;0.10;;
4186;SDS011;2107;52.306;10.484;2023-06-26T01:11:24;0.10;;;0.10;;
4186;SDS011;2107;52.306;10.484;2023-06-26T01:13:51;0.10;;;0.10;;
4186;SDS011;2107;52.306;10.484;2023-06-26T01:16:19;0.10;;;0.10;;
4186;SDS011;2107;52.306;10.484;2023-06-26T01:18:47;0.10;;;0.10;;
4186;SDS011;2107;52.306;10.484;2023-06-26T01:21:16;0.10;;;0.10;;
4186;SDS011;2107;52.306;10.484;2023-06-26T01:23:48;0.10;;;0.10;;
4186;SDS011;2107;52.306;10.484;2023-06-26T01:26:25;0.10;;;0.10;;
4186;SDS011;2107;52.306;10.484;2023-06-26T01:28:55;0.13;;;0.13;;
4186;SDS011;2107;52.306;10.484;2023-06-26T01:31:24;0.20;;;0.20;;
4186;SDS011;2107;52.306;10.484;2023-06-26T01:33:53;0.10;;;0.10;;
4186;SDS011;2107;52.306;10.484;2023-06-26T01:36:20;0.10;;;0.10;;
4186;SDS011;2107;52.306;10.484;2023-06-26T01:38:48;0.10;;;0.10;;
4186;SDS011;2107;52.306;10.484;2023-06-26T01:41:16;0.10;;;0.10;;
4186;SDS011;2107;52.306;10.484;2023-06-26T01:43:46;0.10;;;0.10;;
4186;SDS011;2107;52.306;10.484;2023-06-26T01:46:34;0.10;;;0.10;;
4186;SDS011;2107;52.306;10.484;2023-06-26T01:49:07;0.10;;;0.10;;
4186;SDS011;2107;52.306;10.484;2023-06-26T01:51:39;0.10;;;0.10;;
4186;SDS011;2107;52.306;10.484;2023-06-26T01:54:10;0.07;;;0.07;;
4186;SDS011;2107;52.306;10.484;2023-06-26T01:56:42;0.10;;;0.10;;
4186;SDS011;2107;52.306;10.484;2023-06-26T01:59:13;0.10;;;0.10;;
4186;SDS011;2107;52.306;10.484;2023-06-26T02:01:41;0.10;;;0.10;;
4186;SDS011;2107;52.306;10.484;2023-06-26T02:04:07;0.10;;;0.10;;
4186;SDS011;2107;52.306;10.484;2023-06-26T02:06:34;0.10;;;0.10;;
4186;SDS011;2107;52.306;10.484;2023-06-26T02:09:01;0.10;;;0.10;;
4186;SDS011;2107;52.306;10.484;2023-06-26T02:11:28;0.10;;;0.10;;
4186;SDS011;2107;52.306;10.484;2023-06-26T02:13:55;0.10;;;0.10;;
4186;SDS011;2107;52.306;10.484;2023-06-26T02:16:23;0.10;;;0.10;;
4186;SDS011;2107;52.306;10.484;2023-06-26T02:18:50;0.20;;;0.20;;
4186;SDS011;2107;52.306;10.484;2023-06-26T02:21:17;0.10;;;0.10;;
4186;SDS011;2107;52.306;10.484;2023-06-26T02:23:44;0.10;;;0.10;;
4186;SDS011;2107;52.306;10.484;2023-06-26T02:26:11;0.10;;;0.10;;
4186;SDS011;2107;52.306;10.484;2023-06-26T02:28:37;0.10;;;0.10;;
4186;SDS011;2107;52.306;10.484;2023-06-26T02:31:04;0.10;;;0.10;;
4186;SDS011;2107;52.306;10.484;2023-06-26T02:33:32;0.10;;;0.10;;
4186;SDS011;2107;52.306;10.484;2023-06-26T02:35:59;0.10;;;0.10;;
4186;SDS011;2107;52.306;10.484;2023-06-26T02:38:26;0.10;;;0.10;;
4186;SDS011;2107;52.306;10.484;2023-06-26T02:40:53;0.10;;;0.10;;
4186;SDS011;2107;52.306;10.484;2023-06-26T02:43:20;0.10;;;0.10;;
4186;SDS011;2107;52.306;10.484;2023-06-26T02:45:46;0.10;;;0.10;;
4186;SDS011;2107;52.306;10.484;2023-06-26T02:48:13;0.20;;;0.20;;
4186;SDS011;2107;52.306;10.484;2023-06-26T02:50:42;0.10;;;0.10;;
4186;SDS011;2107;52.306;10.484;2023-06-26T02:53:11;0.10;;;0.10;;
4186;SDS011;2107;52.306;10.484;2023-06-26T02:55:37;0.20;;;0.20;;
4186;SDS011;2107;52.306;10.484;2023-06-26T02:58:04;0.20;;;0.20;;
4186;SDS011;2107;52.306;10.484;2023-06-26T03:00:31;0.20;;;0.20;;
4186;SDS011;2107;52.306;10.484;2023-06-26T03:02:58;0.20;;;0.20;;
4186;SDS011;2107;52.306;10.484;2023-06-26T03:05:25;0.30;;;0.30;;
4186;SDS011;2107;52.306;10.484;2023-06-26T03:07:53;0.20;;;0.20;;
4186;SDS011;2107;52.306;10.484;2023-06-26T03:10:20;0.30;;;0.30;;
4186;SDS011;2107;52.306;10.484;2023-06-26T03:12:47;0.30;;;0.30;;
4186;SDS011;2107;52.306;10.484;2023-06-26T03:15:15;0.20;;;0.20;;
4186;SDS011;2107;52.306;10.484;2023-06-26T03:17:42;0.20;;;0.20;;
4186;SDS011;2107;52.306;10.484;2023-06-26T03:20:09;0.23;;;0.23;;
4186;SDS011;2107;52.306;10.484;2023-06-26T03:22:36;0.20;;;0.20;;
4186;SDS011;2107;52.306;10.484;2023-06-26T03:25:04;0.23;;;0.23;;
4186;SDS011;2107;52.306;10.484;2023-06-26T03:27:32;0.30;;;0.30;;
4186;SDS011;2107;52.306;10.484;2023-06-26T03:29:58;0.20;;;0.20;;
4186;SDS011;2107;52.306;10.484;2023-06-26T03:32:26;0.30;;;0.30;;
4186;SDS011;2107;52.306;10.484;2023-06-26T03:34:53;0.30;;;0.30;;
4186;SDS011;2107;52.306;10.484;2023-06-26T03:37:20;0.30;;;0.30;;
4186;SDS011;2107;52.306;10.484;2023-06-26T03:39:47;0.30;;;0.30;;
4186;SDS011;2107;52.306;10.484;2023-06-26T03:42:15;0.20;;;0.20;;
4186;SDS011;2107;52.306;10.484;2023-06-26T03:44:42;0.20;;;0.20;;
4186;SDS011;2107;52.306;10.484;2023-06-26T03:47:09;0.20;;;0.20;;
4186;SDS011;2107;52.306;10.484;2023-06-26T03:49:35;0.30;;;0.30;;
4186;SDS011;2107;52.306;10.484;2023-06-26T03:52:02;0.30;;;0.30;;
4186;SDS011;2107;52.306;10.484;2023-06-26T03:54:29;0.30;;;0.30;;
4186;SDS011;2107;52.306;10.484;2023-06-26T03:56:59;0.30;;;0.30;;
4186;SDS011;2107;52.306;10.484;2023-06-26T03:59:27;0.40;;;0.40;;
4186;SDS011;2107;52.306;10.484;2023-06-26T04:01:53;0.53;;;0.53;;
4186;SDS011;2107;52.306;10.484;2023-06-26T04:04:21;0.50;;;0.50;;
4186;SDS011;2107;52.306;10.484;2023-06-26T04:06:48;0.50;;;0.50;;
4186;SDS011;2107;52.306;10.484;2023-06-26T04:09:15;0.50;;;0.50;;
4186;SDS011;2107;52.306;10.484;2023-06-26T04:11:43;0.53;;;0.53;;
4186;SDS011;2107;52.306;10.484;2023-06-26T04:14:10;0.80;;;0.80;;
4186;SDS011;2107;52.306;10.484;2023-06-26T04:16:39;0.80;;;0.80;;
4186;SDS011;2107;52.306;10.484;2023-06-26T04:19:06;0.50;;;0.50;;
4186;SDS011;2107;52.306;10.484;2023-06-26T04:21:34;0.73;;;0.73;;
4186;SDS011;2107;52.306;10.484;2023-06-26T04:24:01;0.50;;;0.50;;
4186;SDS011;2107;52.306;10.484;2023-06-26T04:26:28;0.60;;;0.60;;
4186;SDS011;2107;52.306;10.484;2023-06-26T04:28:55;0.60;;;0.60;;
4186;SDS011;2107;52.306;10.484;2023-06-26T04:31:22;0.60;;;0.60;;
4186;SDS011;2107;52.306;10.484;2023-06-26T04:33:51;0.90;;;0.90;;
4186;SDS011;2107;52.306;10.484;2023-06-26T04:36:19;0.80;;;0.80;;
4186;SDS011;2107;52.306;10.484;2023-06-26T04:38:46;0.70;;;0.70;;
4186;SDS011;2107;52.306;10.484;2023-06-26T04:41:14;0.60;;;0.60;;
4186;SDS011;2107;52.306;10.484;2023-06-26T04:43:41;0.80;;;0.80;;
4186;SDS011;2107;52.306;10.484;2023-06-26T04:46:09;0.60;;;0.60;;
4186;SDS011;2107;52.306;10.484;2023-06-26T04:48:36;1.00;;;1.00;;
4186;SDS011;2107;52.306;10.484;2023-06-26T04:51:05;0.60;;;0.60;;
4186;SDS011;2107;52.306;10.484;2023-06-26T04:53:32;0.80;;;0.80;;
4186;SDS011;2107;52.306;10.484;2023-06-26T04:55:59;1.10;;;1.10;;
4186;SDS011;2107;52.306;10.484;2023-06-26T04:58:25;1.10;;;1.10;;
4186;SDS011;2107;52.306;10.484;2023-06-26T05:00:52;1.20;;;1.20;;
4186;SDS011;2107;52.306;10.484;2023-06-26T05:03:19;1.10;;;1.10;;
4186;SDS011;2107;52.306;10.484;2023-06-26T05:05:47;1.30;;;1.30;;
4186;SDS011;2107;52.306;10.484;2023-06-26T05:08:15;1.20;;;1.20;;
4186;SDS011;2107;52.306;10.484;2023-06-26T05:10:43;0.90;;;0.90;;
4186;SDS011;2107;52.306;10.484;2023-06-26T05:13:10;1.10;;;1.10;;
4186;SDS011;2107;52.306;10.484;2023-06-26T05:15:40;0.80;;;0.80;;
4186;SDS011;2107;52.306;10.484;2023-06-26T05:18:07;1.00;;;1.00;;
4186;SDS011;2107;52.306;10.484;2023-06-26T05:20:34;1.10;;;1.10;;
4186;SDS011;2107;52.306;10.484;2023-06-26T05:23:01;0.80;;;0.80;;
4186;SDS011;2107;52.306;10.484;2023-06-26T05:25:30;1.50;;;1.50;;
4186;SDS011;2107;52.306;10.484;2023-06-26T05:27:59;1.30;;;1.30;;
4186;SDS011;2107;52.306;10.484;2023-06-26T05:30:26;1.20;;;1.20;;
4186;SDS011;2107;52.306;10.484;2023-06-26T05:32:55;1.00;;;1.00;;
4186;SDS011;2107;52.306;10.484;2023-06-26T05:35:24;1.00;;;1.00;;
4186;SDS011;2107;52.306;10.484;2023-06-26T05:37:54;0.90;;;0.90;;
4186;SDS011;2107;52.306;10.484;2023-06-26T05:40:22;1.10;;;1.10;;
4186;SDS011;2107;52.306;10.484;2023-06-26T05:42:51;1.07;;;1.07;;
4186;SDS011;2107;52.306;10.484;2023-06-26T05:45:18;0.83;;;0.83;;
4186;SDS011;2107;52.306;10.484;2023-06-26T05:47:45;1.20;;;1.20;;
4186;SDS011;2107;52.306;10.484;2023-06-26T05:50:13;1.13;;;1.13;;
4186;SDS011;2107;52.306;10.484;2023-06-26T05:52:41;1.10;;;1.10;;
4186;SDS011;2107;52.306;10.484;2023-06-26T05:55:09;1.10;;;1.10;;
4186;SDS011;2107;52.306;10.484;2023-06-26T05:57:37;1.10;;;1.10;;
4186;SDS011;2107;52.306;10.484;2023-06-26T06:00:07;1.20;;;1.20;;
4186;SDS011;2107;52.306;10.484;2023-06-26T06:02:35;1.10;;;1.10;;
4186;SDS011;2107;52.306;10.484;2023-06-26T06:05:02;1.00;;;1.00;;
4186;SDS011;2107;52.306;10.484;2023-06-26T06:07:30;1.10;;;1.10;;
4186;SDS011;2107;52.306;10.484;2023-06-26T06:09:57;1.10;;;1.10;;
4186;SDS011;2107;52.306;10.484;2023-06-26T06:12:24;1.20;;;1.20;;
4186;SDS011;2107;52.306;10.484;2023-06-26T06:14:51;1.10;;;1.10;;
4186;SDS011;2107;52.306;10.484;2023-06-26T06:17:19;1.20;;;1.20;;
4186;SDS011;2107;52.306;10.484;2023-06-26T06:19:46;1.10;;;1.10;;
4186;SDS011;2107;52.306;10.484;2023-06-26T06:22:13;1.30;;;1.30;;
4186;SDS011;2107;52.306;10.484;2023-06-26T06:24:41;1.20;;;1.20;;
4186;SDS011;2107;52.306;10.484;2023-06-26T06:27:09;1.10;;;1.10;;
4186;SDS011;2107;52.306;10.484;2023-06-26T06:29:35;1.00;;;1.00;;
4186;SDS011;2107;52.306;10.484;2023-06-26T06:32:02;1.10;;;1.10;;
4186;SDS011;2107;52.306;10.484;2023-06-26T06:34:31;1.10;;;1.10;;
4186;SDS011;2107;52.306;10.484;2023-06-26T06:36:58;1.30;;;1.30;;
4186;SDS011;2107;52.306;10.484;2023-06-26T06:39:25;1.20;;;1.20;;
4186;SDS011;2107;52.306;10.484;2023-06-26T06:41:51;1.10;;;1.10;;
4186;SDS011;2107;52.306;10.484;2023-06-26T06:44:18;1.10;;;1.10;;
4186;SDS011;2107;52.306;10.484;2023-06-26T06:46:45;1.00;;;1.00;;
4186;SDS011;2107;52.306;10.484;2023-06-26T06:49:12;1.00;;;1.00;;
4186;SDS011;2107;52.306;10.484;2023-06-26T06:51:40;1.10;;;1.10;;
4186;SDS011;2107;52.306;10.484;2023-06-26T06:54:07;1.10;;;1.10;;
4186;SDS011;2107;52.306;10.484;2023-06-26T06:56:34;0.90;;;0.90;;
4186;SDS011;2107;52.306;10.484;2023-06-26T06:59:01;1.13;;;1.13;;
4186;SDS011;2107;52.306;10.484;2023-06-26T07:01:28;1.03;;;1.03;;
4186;SDS011;2107;52.306;10.484;2023-06-26T07:03:54;1.20;;;1.20;;
4186;SDS011;2107;52.306;10.484;2023-06-26T07:06:22;1.03;;;1.03;;
4186;SDS011;2107;52.306;10.484;2023-06-26T07:08:50;1.30;;;1.30;;
4186;SDS011;2107;52.306;10.484;2023-06-26T07:11:17;1.30;;;1.30;;
4186;SDS011;2107;52.306;10.484;2023-06-26T07:13:44;1.20;;;1.20;;
4186;SDS011;2107;52.306;10.484;2023-06-26T07:16:11;1.23;;;1.23;;
4186;SDS011;2107;52.306;10.484;2023-06-26T07:18:40;1.40;;;1.40;;
4186;SDS011;2107;52.306;10.484;2023-06-26T07:21:07;1.10;;;1.10;;
4186;SDS011;2107;52.306;10.484;2023-06-26T07:23:34;1.10;;;1.10;;
4186;SDS011;2107;52.306;10.484;2023-06-26T07:26:02;1.33;;;1.33;;
4186;SDS011;2107;52.306;10.484;2023-06-26T07:28:29;1.70;;;1.70;;
4186;SDS011;2107;52.306;10.484;2023-06-26T07:30:56;1.40;;;1.40;;
4186;SDS011;2107;52.306;10.484;2023-06-26T07:33:23;1.30;;;1.30;;
4186;SDS011;2107;52.306;10.484;2023-06-26T07:35:49;1.30;;;1.30;;
4186;SDS011;2107;52.306;10.484;2023-06-26T07:38:16;1.50;;;1.50;;
4186;SDS011;2107;52.306;10.484;2023-06-26T07:40:43;1.40;;;1.40;;
4186;SDS011;2107;52.306;10.484;2023-06-26T07:43:11;1.50;;;1.50;;
4186;SDS011;2107;52.306;10.484;2023-06-26T07:45:38;1.50;;;1.50;;
4186;SDS011;2107;52.306;10.484;2023-06-26T07:48:05;1.40;;;1.40;;
4186;SDS011;2107;52.306;10.484;2023-06-26T07:50:32;1.30;;;1.30;;
4186;SDS011;2107;52.306;10.484;2023-06-26T07:52:59;1.30;;;1.30;;
4186;SDS011;2107;52.306;10.484;2023-06-26T07:55:27;1.40;;;1.40;;
4186;SDS011;2107;52.306;10.484;2023-06-26T07:57:54;1.23;;;1.23;;
4186;SDS011;2107;52.306;10.484;2023-06-26T08:00:22;1.30;;;1.30;;
4186;SDS011;2107;52.306;10.484;2023-06-26T08:02:49;1.43;;;1.43;;
4186;SDS011;2107;52.306;10.484;2023-06-26T08:05:16;1.10;;;1.10;;
4186;SDS011;2107;52.306;10.484;2023-06-26T08:07:43;1.00;;;1.00;;
4186;SDS011;2107;52.306;10.484;2023-06-26T08:10:10;1.10;;;1.10;;
4186;SDS011;2107;52.306;10.484;2023-06-26T08:12:37;1.10;;;1.10;;
4186;SDS011;2107;52.306;10.484;2023-06-26T08:15:05;1.10;;;1.10;;
4186;SDS011;2107;52.306;10.484;2023-06-26T08:17:35;1.10;;;1.10;;
4186;SDS011;2107;52.306;10.484;2023-06-26T08:20:02;1.03;;;1.03;;
4186;SDS011;2107;52.306;10.484;2023-06-26T08:22:30;1.07;;;1.07;;
4186;SDS011;2107;52.306;10.484;2023-06-26T08:24:57;1.10;;;1.10;;
4186;SDS011;2107;52.306;10.484;2023-06-26T08:27:24;1.00;;;1.00;;
4186;SDS011;2107;52.306;10.484;2023-06-26T08:29:51;1.20;;;1.20;;
4186;SDS011;2107;52.306;10.484;2023-06-26T08:32:18;1.23;;;1.23;;
4186;SDS011;2107;52.306;10.484;2023-06-26T08:34:46;1.00;;;1.00;;
4186;SDS011;2107;52.306;10.484;2023-06-26T08:37:13;1.10;;;1.10;;
4186;SDS011;2107;52.306;10.484;2023-06-26T08:39:40;1.13;;;1.13;;
4186;SDS011;2107;52.306;10.484;2023-06-26T08:42:07;0.97;;;0.97;;
4186;SDS011;2107;52.306;10.484;2023-06-26T08:44:34;0.97;;;0.97;;
4186;SDS011;2107;52.306;10.484;2023-06-26T08:47:01;0.97;;;0.97;;
4186;SDS011;2107;52.306;10.484;2023-06-26T08:49:29;0.90;;;0.90;;
4186;SDS011;2107;52.306;10.484;2023-06-26T08:52:06;1.40;;;1.40;;
4186;SDS011;2107;52.306;10.484;2023-06-26T08:54:40;1.40;;;1.40;;
4186;SDS011;2107;52.306;10.484;2023-06-26T08:57:12;1.00;;;1.00;;
4186;SDS011;2107;52.306;10.484;2023-06-26T08:59:44;1.03;;;1.03;;
4186;SDS011;2107;52.306;10.484;2023-06-26T09:02:12;1.00;;;1.00;;
4186;SDS011;2107;52.306;10.484;2023-06-26T09:04:39;1.50;;;1.50;;
4186;SDS011;2107;52.306;10.484;2023-06-26T09:07:08;1.40;;;1.40;;
4186;SDS011;2107;52.306;10.484;2023-06-26T09:09:35;1.30;;;1.30;;
4186;SDS011;2107;52.306;10.484;2023-06-26T09:12:03;1.50;;;1.50;;
4186;SDS011;2107;52.306;10.484;2023-06-26T09:14:30;1.10;;;1.10;;
4186;SDS011;2107;52.306;10.484;2023-06-26T09:16:57;0.90;;;0.90;;
4186;SDS011;2107;52.306;10.484;2023-06-26T09:19:24;0.90;;;0.90;;
4186;SDS011;2107;52.306;10.484;2023-06-26T09:21:52;0.70;;;0.70;;
4186;SDS011;2107;52.306;10.484;2023-06-26T09:24:21;1.00;;;1.00;;
4186;SDS011;2107;52.306;10.484;2023-06-26T09:26:48;1.07;;;1.07;;
4186;SDS011;2107;52.306;10.484;2023-06-26T09:29:16;0.90;;;0.90;;
4186;SDS011;2107;52.306;10.484;2023-06-26T09:31:44;0.90;;;0.90;;
4186;SDS011;2107;52.306;10.484;2023-06-26T09:34:11;0.60;;;0.60;;
4186;SDS011;2107;52.306;10.484;2023-06-26T09:36:38;0.90;;;0.90;;
4186;SDS011;2107;52.306;10.484;2023-06-26T09:39:07;0.70;;;0.70;;
4186;SDS011;2107;52.306;10.484;2023-06-26T09:41:38;0.90;;;0.90;;
4186;SDS011;2107;52.306;10.484;2023-06-26T09:44:07;0.50;;;0.50;;
4186;SDS011;2107;52.306;10.484;2023-06-26T09:46:38;0.87;;;0.87;;
4186;SDS011;2107;52.306;10.484;2023-06-26T09:49:05;0.80;;;0.80;;
4186;SDS011;2107;52.306;10.484;2023-06-26T09:51:35;0.67;;;0.67;;
4186;SDS011;2107;52.306;10.484;2023-06-26T09:54:04;0.70;;;0.70;;
4186;SDS011;2107;52.306;10.484;2023-06-26T09:56:32;0.90;;;0.90;;
4186;SDS011;2107;52.306;10.484;2023-06-26T09:59:02;0.83;;;0.83;;
4186;SDS011;2107;52.306;10.484;2023-06-26T10:01:30;0.80;;;0.80;;
4186;SDS011;2107;52.306;10.484;2023-06-26T10:03:58;0.60;;;0.60;;
4186;SDS011;2107;52.306;10.484;2023-06-26T10:06:26;0.80;;;0.80;;
4186;SDS011;2107;52.306;10.484;2023-06-26T10:08:55;1.00;;;1.00;;
4186;SDS011;2107;52.306;10.484;2023-06-26T10:11:24;1.10;;;1.10;;
4186;SDS011;2107;52.306;10.484;2023-06-26T10:13:56;0.80;;;0.80;;
4186;SDS011;2107;52.306;10.484;2023-06-26T10:16:26;0.83;;;0.83;;
4186;SDS011;2107;52.306;10.484;2023-06-26T10:18:56;0.80;;;0.80;;
4186;SDS011;2107;52.306;10.484;2023-06-26T10:21:27;0.80;;;0.80;;
4186;SDS011;2107;52.306;10.484;2023-06-26T10:23:56;0.90;;;0.90;;
4186;SDS011;2107;52.306;10.484;2023-06-26T10:26:24;1.00;;;1.00;;
4186;SDS011;2107;52.306;10.484;2023-06-26T10:28:52;0.90;;;0.90;;
4186;SDS011;2107;52.306;10.484;2023-06-26T10:31:25;1.50;;;1.50;;
4186;SDS011;2107;52.306;10.484;2023-06-26T10:33:54;1.20;;;1.20;;
4186;SDS011;2107;52.306;10.484;2023-06-26T10:36:26;1.30;;;1.30;;
4186;SDS011;2107;52.306;10.484;2023-06-26T10:38:55;1.10;;;1.10;;
4186;SDS011;2107;52.306;10.484;2023-06-26T10:41:24;1.00;;;1.00;;
4186;SDS011;2107;52.306;10.484;2023-06-26T10:43:52;1.10;;;1.10;;
4186;SDS011;2107;52.306;10.484;2023-06-26T10:46:34;0.93;;;0.93;;
4186;SDS011;2107;52.306;10.484;2023-06-26T10:49:15;1.00;;;1.00;;
4186;SDS011;2107;52.306;10.484;2023-06-26T10:51:45;1.00;;;1.00;;
4186;SDS011;2107;52.306;10.484;2023-06-26T10:54:14;0.93;;;0.93;;
4186;SDS011;2107;52.306;10.484;2023-06-26T10:56:43;1.00;;;1.00;;
4186;SDS011;2107;52.306;10.484;2023-06-26T10:59:13;1.07;;;1.07;;
4186;SDS011;2107;52.306;10.484;2023-06-26T11:01:44;1.20;;;1.20;;
4186;SDS011;2107;52.306;10.484;2023-06-26T11:04:12;1.20;;;1.20;;
4186;SDS011;2107;52.306;10.484;2023-06-26T11:06:41;1.00;;;1.00;;
4186;SDS011;2107;52.306;10.484;2023-06-26T11:09:11;0.97;;;0.97;;
4186;SDS011;2107;52.306;10.484;2023-06-26T11:11:59;1.00;;;1.00;;
4186;SDS011;2107;52.306;10.484;2023-06-26T11:14:30;0.90;;;0.90;;
4186;SDS011;2107;52.306;10.484;2023-06-26T11:16:59;0.90;;;0.90;;
4186;SDS011;2107;52.306;10.484;2023-06-26T11:19:29;0.80;;;0.80;;
4186;SDS011;2107;52.306;10.484;2023-06-26T11:22:01;0.97;;;0.97;;
4186;SDS011;2107;52.306;10.484;2023-06-26T11:24:29;1.40;;;1.40;;
4186;SDS011;2107;52.306;10.484;2023-06-26T11:26:59;1.03;;;1.03;;
4186;SDS011;2107;52.306;10.484;2023-06-26T11:29:28;1.20;;;1.20;;
4186;SDS011;2107;52.306;10.484;2023-06-26T11:32:00;1.00;;;1.00;;
4186;SDS011;2107;52.306;10.484;2023-06-26T11:34:30;1.00;;;1.00;;
4186;SDS011;2107;52.306;10.484;2023-06-26T11:36:58;0.70;;;0.70;;
4186;SDS011;2107;52.306;10.484;2023-06-26T11:39:26;0.93;;;0.93;;
4186;SDS011;2107;52.306;10.484;2023-06-26T11:41:53;0.80;;;0.80;;
4186;SDS011;2107;52.306;10.484;2023-06-26T11:44:20;0.83;;;0.83;;
4186;SDS011;2107;52.306;10.484;2023-06-26T11:46:48;0.97;;;0.97;;
4186;SDS011;2107;52.306;10.484;2023-06-26T11:49:21;1.20;;;1.20;;
4186;SDS011;2107;52.306;10.484;2023-06-26T11:51:50;1.40;;;1.40;;
4186;SDS011;2107;52.306;10.484;2023-06-26T11:54:23;1.30;;;1.30;;
4186;SDS011;2107;52.306;10.484;2023-06-26T11:56:54;1.40;;;1.40;;
4186;SDS011;2107;52.306;10.484;2023-06-26T11:59:31;1.40;;;1.40;;
4186;SDS011;2107;52.306;10.484;2023-06-26T12:01:59;1.30;;;1.30;;
4186;SDS011;2107;52.306;10.484;2023-06-26T12:04:32;1.80;;;1.80;;
4186;SDS011;2107;52.306;10.484;2023-06-26T12:07:00;1.50;;;1.50;;
4186;SDS011;2107;52.306;10.484;2023-06-26T12:09:32;1.00;;;1.00;;
4186;SDS011;2107;52.306;10.484;2023-06-26T12:11:59;1.60;;;1.60;;
4186;SDS011;2107;52.306;10.484;2023-06-26T12:14:27;1.50;;;1.50;;
4186;SDS011;2107;52.306;10.484;2023-06-26T12:16:54;1.40;;;1.40;;
4186;SDS011;2107;52.306;10.484;2023-06-26T12:19:24;1.40;;;1.40;;
4186;SDS011;2107;52.306;10.484;2023-06-26T12:21:53;1.63;;;1.63;;
4186;SDS011;2107;52.306;10.484;2023-06-26T12:24:22;1.50;;;1.50;;
4186;SDS011;2107;52.306;10.484;2023-06-26T12:26:51;1.30;;;1.30;;
4186;SDS011;2107;52.306;10.484;2023-06-26T12:29:21;1.33;;;1.33;;
4186;SDS011;2107;52.306;10.484;2023-06-26T12:31:55;1.23;;;1.23;;
4186;SDS011;2107;52.306;10.484;2023-06-26T12:34:25;1.20;;;1.20;;
4186;SDS011;2107;52.306;10.484;2023-06-26T12:36:59;1.20;;;1.20;;
4186;SDS011;2107;52.306;10.484;2023-06-26T12:39:28;0.90;;;0.90;;
4186;SDS011;2107;52.306;10.484;2023-06-26T12:41:56;0.90;;;0.90;;
4186;SDS011;2107;52.306;10.484;2023-06-26T12:44:27;0.90;;;0.90;;
4186;SDS011;2107;52.306;10.484;2023-06-26T12:46:55;1.07;;;1.07;;
4186;SDS011;2107;52.306;10.484;2023-06-26T12:49:29;1.00;;;1.00;;
4186;SDS011;2107;52.306;10.484;2023-06-26T12:52:00;0.80;;;0.80;;
4186;SDS011;2107;52.306;10.484;2023-06-26T12:54:27;0.87;;;0.87;;
4186;SDS011;2107;52.306;10.484;2023-06-26T12:56:54;0.73;;;0.73;;
4186;SDS011;2107;52.306;10.484;2023-06-26T12:59:21;1.00;;;1.00;;
4186;SDS011;2107;52.306;10.484;2023-06-26T13:01:48;0.80;;;0.80;;
4186;SDS011;2107;52.306;10.484;2023-06-26T13:04:15;0.80;;;0.80;;
4186;SDS011;2107;52.306;10.484;2023-06-26T13:06:42;0.90;;;0.90;;
4186;SDS011;2107;52.306;10.484;2023-06-26T13:09:11;1.00;;;1.00;;
4186;SDS011;2107;52.306;10.484;2023-06-26T13:11:38;1.03;;;1.03;;
4186;SDS011;2107;52.306;10.484;2023-06-26T13:14:05;1.20;;;1.20;;
4186;SDS011;2107;52.306;10.484;2023-06-26T13:16:32;1.10;;;1.10;;
4186;SDS011;2107;52.306;10.484;2023-06-26T13:18:59;0.90;;;0.90;;
4186;SDS011;2107;52.306;10.484;2023-06-26T13:21:27;0.77;;;0.77;;
4186;SDS011;2107;52.306;10.484;2023-06-26T13:23:54;0.70;;;0.70;;
4186;SDS011;2107;52.306;10.484;2023-06-26T13:26:22;0.80;;;0.80;;
4186;SDS011;2107;52.306;10.484;2023-06-26T13:28:50;1.10;;;1.10;;
4186;SDS011;2107;52.306;10.484;2023-06-26T13:31:17;1.00;;;1.00;;
4186;SDS011;2107;52.306;10.484;2023-06-26T13:33:44;0.80;;;0.80;;
4186;SDS011;2107;52.306;10.484;2023-06-26T13:36:13;0.90;;;0.90;;
4186;SDS011;2107;52.306;10.484;2023-06-26T13:38:41;0.97;;;0.97;;
4186;SDS011;2107;52.306;10.484;2023-06-26T13:41:08;1.00;;;1.00;;
4186;SDS011;2107;52.306;10.484;2023-06-26T13:43:36;1.40;;;1.40;;
4186;SDS011;2107;52.306;10.484;2023-06-26T13:46:03;1.17;;;1.17;;
4186;SDS011;2107;52.306;10.484;2023-06-26T13:48:30;1.00;;;1.00;;
4186;SDS011;2107;52.306;10.484;2023-06-26T13:50:58;0.70;;;0.70;;
4186;SDS011;2107;52.306;10.484;2023-06-26T13:53:25;1.20;;;1.20;;
4186;SDS011;2107;52.306;10.484;2023-06-26T13:55:52;0.90;;;0.90;;
4186;SDS011;2107;52.306;10.484;2023-06-26T13:58:19;0.80;;;0.80;;
4186;SDS011;2107;52.306;10.484;2023-06-26T14:00:53;0.70;;;0.70;;
4186;SDS011;2107;52.306;10.484;2023-06-26T14:03:20;0.90;;;0.90;;
4186;SDS011;2107;52.306;10.484;2023-06-26T14:05:46;1.10;;;1.10;;
4186;SDS011;2107;52.306;10.484;2023-06-26T14:08:14;1.20;;;1.20;;
4186;SDS011;2107;52.306;10.484;2023-06-26T14:10:40;0.80;;;0.80;;
4186;SDS011;2107;52.306;10.484;2023-06-26T14:13:08;0.80;;;0.80;;
4186;SDS011;2107;52.306;10.484;2023-06-26T14:15:36;1.07;;;1.07;;
4186;SDS011;2107;52.306;10.484;2023-06-26T14:18:06;1.20;;;1.20;;
4186;SDS011;2107;52.306;10.484;2023-06-26T14:20:33;1.10;;;1.10;;
4186;SDS011;2107;52.306;10.484;2023-06-26T14:23:01;1.10;;;1.10;;
4186;SDS011;2107;52.306;10.484;2023-06-26T14:25:28;1.30;;;1.30;;
4186;SDS011;2107;52.306;10.484;2023-06-26T14:27:55;1.27;;;1.27;;
4186;SDS011;2107;52.306;10.484;2023-06-26T14:30:22;0.70;;;0.70;;
4186;SDS011;2107;52.306;10.484;2023-06-26T14:32:49;1.20;;;1.20;;
4186;SDS011;2107;52.306;10.484;2023-06-26T14:35:17;1.10;;;1.10;;
4186;SDS011;2107;52.306;10.484;2023-06-26T14:37:44;1.10;;;1.10;;
4186;SDS011;2107;52.306;10.484;2023-06-26T14:40:11;0.77;;;0.77;;
4186;SDS011;2107;52.306;10.484;2023-06-26T14:42:39;1.20;;;1.20;;
4186;SDS011;2107;52.306;10.484;2023-06-26T14:45:08;1.20;;;1.20;;
4186;SDS011;2107;52.306;10.484;2023-06-26T14:47:36;1.20;;;1.20;;
4186;SDS011;2107;52.306;10.484;2023-06-26T14:50:03;1.20;;;1.20;;
4186;SDS011;2107;52.306;10.484;2023-06-26T14:52:31;1.00;;;1.00;;
4186;SDS011;2107;52.306;10.484;2023-06-26T14:54:58;1.70;;;1.70;;
4186;SDS011;2107;52.306;10.484;2023-06-26T14:57:25;1.30;;;1.30;;
4186;SDS011;2107;52.306;10.484;2023-06-26T14:59:52;1.70;;;1.70;;
4186;SDS011;2107;52.306;10.484;2023-06-26T15:02:19;1.70;;;1.70;;
4186;SDS011;2107;52.306;10.484;2023-06-26T15:04:46;1.50;;;1.50;;